Time;durP1;ratioP1;P1;durP2;ratioP2;P2;SDS_P1;SDS_P2;PMS_P1;PMS_P2;Temp;Humidity;BMP_temperature;BMP_pressure;BME280_temperature;BME280_humidity;BME280_pressure;Samples;Min_cycle;Max_cycle;Signal;HPM_P1;HPM_P2
2022/11/14 00:02:09;;;;;;;26.98;15.30;;;2.70;99.90;;;;;;5091957;28;20377;-70
2022/11/14 00:04:35;;;;;;;26.42;16.02;;;2.70;99.90;;;;;;5092384;28;20075;-69
2022/11/14 00:07:00;;;;;;;32.70;14.32;;;2.70;99.90;;;;;;5092761;28;20040;-69
2022/11/14 00:09:27;;;;;;;29.77;15.38;;;2.70;99.90;;;;;;5092018;28;20027;-69
2022/11/14 00:11:54;;;;;;;28.95;14.75;;;2.70;99.90;;;;;;5092701;28;20142;-69
2022/11/14 00:14:19;;;;;;;28.10;15.70;;;2.70;99.90;;;;;;5090963;28;20547;-69
2022/11/14 00:16:45;;;;;;;28.00;15.15;;;2.70;99.90;;;;;;5092063;28;20104;-69
2022/11/14 00:19:11;;;;;;;34.08;16.25;;;2.60;99.90;;;;;;5092316;28;20469;-69
2022/11/14 00:21:37;;;;;;;37.72;16.92;;;2.60;99.90;;;;;;5092359;28;20024;-69
2022/11/14 00:24:02;;;;;;;33.03;15.93;;;2.60;99.90;;;;;;5091737;28;20031;-70
2022/11/14 00:26:28;;;;;;;34.33;16.60;;;2.60;99.90;;;;;;5090404;28;20048;-68
2022/11/14 00:28:54;;;;;;;38.53;18.55;;;2.60;99.90;;;;;;5091954;28;20028;-69
2022/11/14 00:31:20;;;;;;;36.00;17.48;;;2.70;99.90;;;;;;5091389;28;20063;-68
2022/11/14 00:33:45;;;;;;;39.08;17.75;;;2.70;99.90;;;;;;5092134;28;20017;-69
2022/11/14 00:36:11;;;;;;;35.50;17.38;;;2.70;99.90;;;;;;5091572;28;20404;-69
2022/11/14 00:38:37;;;;;;;39.03;17.35;;;2.60;99.90;;;;;;5091397;28;20099;-69
2022/11/14 00:41:02;;;;;;;34.10;16.80;;;2.60;99.90;;;;;;5091456;28;20072;-69
2022/11/14 00:43:28;;;;;;;40.67;19.02;;;2.60;99.90;;;;;;5091649;28;20349;-69
2022/11/14 00:45:53;;;;;;;40.25;18.02;;;2.50;99.90;;;;;;5091964;28;20107;-69
2022/11/14 00:48:19;;;;;;;32.88;16.70;;;2.50;99.90;;;;;;5092077;28;20024;-67
2022/11/14 00:50:45;;;;;;;37.30;18.02;;;2.50;99.90;;;;;;5091207;28;20020;-70
2022/11/14 00:53:10;;;;;;;33.90;17.65;;;2.40;99.90;;;;;;5091610;28;20020;-68
2022/11/14 00:55:36;;;;;;;35.97;16.75;;;2.40;99.90;;;;;;5092011;28;20484;-69
2022/11/14 00:58:02;;;;;;;39.25;17.13;;;2.30;99.90;;;;;;5091019;28;20035;-69
2022/11/14 01:00:27;;;;;;;32.83;16.75;;;2.30;99.90;;;;;;5091943;28;20380;-69
2022/11/14 01:02:55;;;;;;;40.00;18.23;;;2.20;99.90;;;;;;5091748;28;20099;-69
2022/11/14 01:05:22;;;;;;;47.03;18.98;;;2.20;99.90;;;;;;5091608;28;20480;-67
2022/11/14 01:07:48;;;;;;;40.63;20.75;;;2.20;99.90;;;;;;5091593;28;20021;-69
2022/11/14 01:10:15;;;;;;;39.75;19.35;;;2.10;99.90;;;;;;5091783;28;20165;-69
2022/11/14 01:12:40;;;;;;;33.88;17.88;;;2.10;99.90;;;;;;5090923;28;20499;-69
2022/11/14 01:15:06;;;;;;;40.10;17.98;;;2.10;99.90;;;;;;5091358;28;20052;-68
2022/11/14 01:17:32;;;;;;;36.28;18.90;;;2.10;99.90;;;;;;5093105;28;20080;-68
2022/11/14 01:19:57;;;;;;;42.85;19.17;;;2.10;99.90;;;;;;5095043;28;20032;-69
2022/11/14 01:22:23;;;;;;;41.47;18.60;;;2.10;99.90;;;;;;5095771;28;20032;-69
2022/11/14 01:24:49;;;;;;;38.72;18.48;;;2.00;99.90;;;;;;5095882;28;20016;-69
2022/11/14 01:27:14;;;;;;;34.60;16.95;;;1.90;99.90;;;;;;5095068;28;20047;-69
2022/11/14 01:29:40;;;;;;;37.05;17.15;;;1.90;99.90;;;;;;5095554;28;20013;-69
2022/11/14 01:32:05;;;;;;;36.58;16.50;;;1.90;99.90;;;;;;5095597;28;20024;-69
2022/11/14 01:34:31;;;;;;;33.40;14.35;;;1.80;99.90;;;;;;5093222;28;20020;-69
2022/11/14 01:36:57;;;;;;;30.52;14.43;;;1.70;99.90;;;;;;5093764;28;20387;-69
2022/11/14 01:39:22;;;;;;;30.52;14.55;;;1.70;99.90;;;;;;5095337;28;20024;-68
2022/11/14 01:41:48;;;;;;;34.47;16.73;;;1.60;99.90;;;;;;5094577;28;20085;-69
2022/11/14 01:44:37;;;;;;;35.95;17.02;;;1.60;99.90;;;;;;5093547;28;20085;-69
2022/11/14 01:47:04;;;;;;;31.17;15.10;;;1.60;99.90;;;;;;5094378;28;20020;-68
2022/11/14 01:49:40;;;;;;;31.67;15.13;;;1.60;99.90;;;;;;5095362;28;20065;-69
2022/11/14 01:52:14;;;;;;;33.33;15.38;;;1.50;99.90;;;;;;5095262;28;20090;-67
2022/11/14 01:54:52;;;;;;;31.25;14.95;;;1.50;99.90;;;;;;5091034;28;20377;-70
2022/11/14 01:57:24;;;;;;;32.10;15.35;;;1.50;99.90;;;;;;5092740;28;20073;-70
2022/11/14 01:59:52;;;;;;;;;;;1.50;99.90;;;;;;5095556;28;20024;-69
2022/11/14 02:02:21;;;;;;;28.35;12.45;;;1.40;99.90;;;;;;5093820;28;19911;-69
2022/11/14 02:04:52;;;;;;;30.35;14.57;;;1.30;99.90;;;;;;5094912;28;20024;-70
2022/11/14 02:07:18;;;;;;;30.80;14.35;;;1.20;99.90;;;;;;5095083;28;20372;-70
2022/11/14 02:09:45;;;;;;;29.60;13.68;;;1.20;99.90;;;;;;5094162;28;20028;-70
2022/11/14 02:12:13;;;;;;;31.33;15.63;;;1.10;99.90;;;;;;5093542;28;20042;-69
2022/11/14 02:14:41;;;;;;;30.17;14.68;;;1.10;99.90;;;;;;5094392;28;20028;-70
2022/11/14 02:17:07;;;;;;;35.05;16.77;;;1.10;99.90;;;;;;5093181;28;20118;-70
2022/11/14 02:19:49;;;;;;;29.67;14.82;;;1.00;99.90;;;;;;5094983;28;20056;-68
2022/11/14 02:22:14;;;;;;;32.13;15.77;;;1.00;99.90;;;;;;5093901;28;20051;-70
2022/11/14 02:24:41;;;;;;;31.20;15.48;;;0.90;99.90;;;;;;5094420;28;20055;-68
2022/11/14 02:27:07;;;;;;;32.65;14.93;;;0.90;99.90;;;;;;5094455;28;20131;-70
2022/11/14 02:29:34;;;;;;;30.73;14.80;;;0.90;99.90;;;;;;5088896;28;20020;-69
2022/11/14 02:32:00;;;;;;;25.67;13.05;;;0.80;99.90;;;;;;5088459;28;20399;-69
2022/11/14 02:34:26;;;;;;;26.85;12.90;;;0.70;99.90;;;;;;5093155;28;20028;-69
2022/11/14 02:36:51;;;;;;;28.63;13.23;;;0.70;99.90;;;;;;5097335;28;20451;-70
2022/11/14 02:39:17;;;;;;;28.55;12.95;;;0.60;99.90;;;;;;5096679;28;20024;-70
2022/11/14 02:41:42;;;;;;;33.50;14.85;;;0.60;99.90;;;;;;5113540;28;20487;-69
2022/11/14 02:44:08;;;;;;;33.63;14.35;;;0.60;99.90;;;;;;5112679;28;20028;-68
2022/11/14 02:46:33;;;;;;;33.95;15.27;;;0.60;99.90;;;;;;5114327;28;20062;-69
2022/11/14 02:48:59;;;;;;;33.25;14.45;;;0.60;99.90;;;;;;5113800;28;20058;-70
2022/11/14 02:51:25;;;;;;;30.33;14.85;;;0.60;99.90;;;;;;5113597;28;20119;-69
2022/11/14 02:53:50;;;;;;;31.17;14.25;;;0.60;99.90;;;;;;5113225;28;20472;-69
2022/11/14 02:56:16;;;;;;;32.42;14.35;;;0.70;99.90;;;;;;5114153;28;20032;-70
2022/11/14 02:58:41;;;;;;;31.45;15.48;;;0.70;99.90;;;;;;5113945;28;20035;-69
2022/11/14 03:01:07;;;;;;;28.50;13.48;;;0.70;99.90;;;;;;5114025;28;20042;-69
2022/11/14 03:03:32;;;;;;;28.67;13.80;;;0.70;99.90;;;;;;5113052;28;20118;-70
2022/11/14 03:06:02;;;;;;;28.38;14.32;;;0.60;99.90;;;;;;5113390;28;20464;-69
2022/11/14 03:08:28;;;;;;;25.77;12.98;;;0.60;99.90;;;;;;5114136;28;20065;-69
2022/11/14 03:10:54;;;;;;;29.65;12.90;;;0.60;99.90;;;;;;5113221;28;20028;-70
2022/11/14 03:13:19;;;;;;;27.98;14.18;;;0.50;99.90;;;;;;5114065;28;20046;-68
2022/11/14 03:15:45;;;;;;;37.33;15.30;;;0.50;99.90;;;;;;5114301;28;20103;-70
2022/11/14 03:18:11;;;;;;;34.83;15.55;;;0.50;99.90;;;;;;5113377;28;20062;-69
2022/11/14 03:20:37;;;;;;;37.28;16.55;;;0.50;99.90;;;;;;5113939;28;20483;-69
2022/11/14 03:23:03;;;;;;;40.80;17.67;;;0.50;99.90;;;;;;5113708;28;20024;-69
2022/11/14 03:25:28;;;;;;;37.38;17.73;;;0.40;99.90;;;;;;5112144;28;20052;-68
2022/11/14 03:27:54;;;;;;;42.25;18.00;;;0.40;99.90;;;;;;5113452;28;20027;-69
2022/11/14 03:30:20;;;;;;;34.78;14.85;;;0.40;99.90;;;;;;5113902;28;20111;-67
2022/11/14 03:32:45;;;;;;;40.60;16.60;;;0.40;99.90;;;;;;5111664;28;20107;-70
2022/11/14 03:35:11;;;;;;;42.58;17.67;;;0.40;99.90;;;;;;5113872;28;20024;-69
2022/11/14 03:37:37;;;;;;;41.25;17.52;;;0.40;99.90;;;;;;5113599;28;20575;-69
2022/11/14 03:40:03;;;;;;;54.72;20.55;;;0.40;99.90;;;;;;5111101;28;20049;-69
2022/11/14 03:42:33;;;;;;;43.10;18.48;;;0.40;99.90;;;;;;5113616;28;20082;-69
2022/11/14 03:44:58;;;;;;;43.42;19.10;;;0.40;99.90;;;;;;5113429;28;20046;-65
2022/11/14 03:47:24;;;;;;;46.67;18.98;;;0.40;99.90;;;;;;5112979;28;20471;-69
2022/11/14 03:49:49;;;;;;;49.00;18.90;;;0.40;99.90;;;;;;5113426;28;20073;-69
2022/11/14 03:52:15;;;;;;;40.40;18.63;;;0.40;99.90;;;;;;5112025;28;20031;-69
2022/11/14 03:54:40;;;;;;;63.88;18.98;;;0.40;99.90;;;;;;5111176;28;20016;-70
2022/11/14 03:57:06;;;;;;;48.63;17.45;;;0.50;99.90;;;;;;5113231;28;20095;-69
2022/11/14 03:59:32;;;;;;;90.20;23.55;;;0.40;99.90;;;;;;5113438;28;20058;-69
2022/11/14 04:01:57;;;;;;;45.88;18.40;;;0.50;99.90;;;;;;5111131;28;20030;-69
2022/11/14 04:04:23;;;;;;;47.88;18.45;;;0.40;99.90;;;;;;5113136;28;20085;-69
2022/11/14 04:06:48;;;;;;;46.85;19.35;;;0.50;99.90;;;;;;5112023;28;20035;-70
2022/11/14 04:09:14;;;;;;;42.45;18.95;;;0.50;99.90;;;;;;5112502;28;20021;-70
2022/11/14 04:11:39;;;;;;;41.35;17.38;;;0.40;99.90;;;;;;5112980;28;20067;-70
2022/11/14 04:14:05;;;;;;;76.22;22.73;;;0.40;99.90;;;;;;5113025;28;20370;-69
2022/11/14 04:16:30;;;;;;;47.05;20.08;;;0.40;99.90;;;;;;5112332;28;20104;-69
2022/11/14 04:18:56;;;;;;;55.13;18.83;;;0.40;99.90;;;;;;5113018;28;20028;-70
2022/11/14 04:21:22;;;;;;;49.15;19.30;;;0.40;99.90;;;;;;5112241;28;20061;-70
2022/11/14 04:23:47;;;;;;;48.88;19.60;;;0.40;99.90;;;;;;5112849;28;20031;-67
2022/11/14 04:26:13;;;;;;;53.80;18.92;;;0.40;99.90;;;;;;5112873;28;20130;-70
2022/11/14 04:28:38;;;;;;;60.33;19.95;;;0.30;99.90;;;;;;5110776;28;20028;-69
2022/11/14 04:31:04;;;;;;;48.45;17.55;;;0.30;99.90;;;;;;5112711;28;20031;-69
2022/11/14 04:33:30;;;;;;;41.40;16.95;;;0.20;99.90;;;;;;5112321;28;20031;-69
2022/11/14 04:35:55;;;;;;;106.75;24.95;;;0.20;99.90;;;;;;5111994;28;20459;-69
2022/11/14 04:38:21;;;;;;;37.60;18.45;;;0.20;99.90;;;;;;5112639;28;20069;-69
2022/11/14 04:40:53;;;;;;;51.92;19.70;;;0.20;99.90;;;;;;5112448;28;20506;-70
2022/11/14 04:43:19;;;;;;;40.58;18.48;;;0.20;99.90;;;;;;5111920;28;20016;-69
2022/11/14 04:45:46;;;;;;;42.78;18.50;;;0.20;99.90;;;;;;5111998;28;20023;-70
2022/11/14 04:48:12;;;;;;;49.20;22.50;;;0.20;99.90;;;;;;5111095;28;20463;-69
2022/11/14 04:50:38;;;;;;;48.88;19.70;;;0.20;99.90;;;;;;5111440;28;20955;-69
2022/11/14 04:53:04;;;;;;;47.08;19.30;;;0.20;99.90;;;;;;5111878;28;20032;-70
2022/11/14 04:55:30;;;;;;;40.55;18.38;;;0.10;99.90;;;;;;5110905;28;20476;-72
2022/11/14 04:57:56;;;;;;;50.65;19.65;;;0.10;99.90;;;;;;5112005;28;20023;-70
2022/11/14 05:00:23;;;;;;;41.70;20.33;;;0.00;99.90;;;;;;5112243;28;20421;-73
2022/11/14 05:02:48;;;;;;;41.42;19.15;;;0.00;99.90;;;;;;5111014;28;20373;-71
2022/11/14 05:05:14;;;;;;;47.08;19.75;;;0.00;99.90;;;;;;5111546;28;20028;-72
2022/11/14 05:07:40;;;;;;;46.83;19.65;;;0.00;99.90;;;;;;5112070;28;20022;-68
2022/11/14 05:10:07;;;;;;;39.33;18.98;;;0.00;99.90;;;;;;5112200;28;20028;-71
2022/11/14 05:12:32;;;;;;;51.40;19.55;;;0.00;99.90;;;;;;5110043;28;20039;-71
2022/11/14 05:14:58;;;;;;;52.80;17.15;;;0.00;99.90;;;;;;5090100;28;20013;-70
2022/11/14 05:17:24;;;;;;;49.83;19.77;;;-0.10;99.90;;;;;;5091287;28;20057;-70
2022/11/14 05:19:50;;;;;;;38.50;17.17;;;-0.10;99.90;;;;;;5089346;28;20012;-71
2022/11/14 05:22:15;;;;;;;43.13;18.63;;;-0.10;99.90;;;;;;5091272;28;20433;-68
2022/11/14 05:24:41;;;;;;;37.42;18.80;;;-0.20;99.90;;;;;;5090415;28;20085;-71
2022/11/14 05:27:07;;;;;;;39.60;17.63;;;-0.20;99.90;;;;;;5091052;28;20036;-71
2022/11/14 05:29:32;;;;;;;39.80;17.90;;;-0.20;99.90;;;;;;5091159;28;20162;-69
2022/11/14 05:31:59;;;;;;;33.70;16.98;;;-0.30;99.90;;;;;;5090776;28;20039;-66
2022/11/14 05:34:25;;;;;;;37.65;18.65;;;-0.30;99.90;;;;;;5091230;28;20518;-70
2022/11/14 05:36:51;;;;;;;38.78;18.17;;;-0.30;99.90;;;;;;5090588;28;20465;-72
2022/11/14 05:39:17;;;;;;;35.45;16.92;;;-0.30;99.90;;;;;;5089755;28;20027;-71
2022/11/14 05:41:42;;;;;;;35.05;15.85;;;-0.30;99.90;;;;;;5091249;28;20111;-71
2022/11/14 05:44:08;;;;;;;39.38;16.60;;;-0.30;99.90;;;;;;5091627;28;20426;-72
2022/11/14 05:46:34;;;;;;;37.25;18.33;;;-0.30;99.90;;;;;;5090938;28;20077;-71
2022/11/14 05:48:59;;;;;;;34.55;17.52;;;-0.30;99.90;;;;;;5090093;28;20045;-65
2022/11/14 05:51:25;;;;;;;33.58;17.05;;;-0.40;99.90;;;;;;5091424;28;20357;-68
2022/11/14 05:53:51;;;;;;;35.97;16.73;;;-0.40;99.90;;;;;;5088240;28;20016;-71
2022/11/14 05:56:16;;;;;;;38.80;16.23;;;-0.40;99.90;;;;;;5089939;28;20033;-71
2022/11/14 05:58:42;;;;;;;35.35;16.75;;;-0.50;99.90;;;;;;5107341;28;20020;-70
2022/11/14 06:01:17;;;;;;;36.22;16.15;;;-0.50;99.90;;;;;;5084799;28;20027;-69
2022/11/14 06:03:44;;;;;;;37.10;16.70;;;-0.50;99.90;;;;;;5092362;28;20016;-69
2022/11/14 06:06:13;;;;;;;33.10;16.48;;;-0.50;99.90;;;;;;5094938;28;20389;-71
2022/11/14 06:08:38;;;;;;;33.55;16.63;;;-0.50;99.90;;;;;;5083617;28;20093;-72
2022/11/14 06:11:07;;;;;;;36.30;17.83;;;-0.50;99.90;;;;;;5073372;28;20036;-72
2022/11/14 06:13:34;;;;;;;38.50;17.00;;;-0.50;99.90;;;;;;5075469;28;20468;-72
2022/11/14 06:16:05;;;;;;;39.38;17.52;;;-0.50;99.90;;;;;;5094064;28;20024;-73
2022/11/14 06:18:31;;;;;;;35.85;17.50;;;-0.50;99.90;;;;;;5091877;28;20085;-70
2022/11/14 06:21:11;;;;;;;33.38;15.45;;;-0.60;99.90;;;;;;5092036;28;20023;-73
2022/11/14 06:23:37;;;;;;;30.05;16.92;;;-0.60;99.90;;;;;;5092864;28;20032;-69
2022/11/14 06:26:06;;;;;;;34.38;16.20;;;-0.60;99.90;;;;;;5093132;28;20052;-73
2022/11/14 06:28:32;;;;;;;34.53;15.48;;;-0.60;99.90;;;;;;5092394;28;20032;-73
2022/11/14 06:30:58;;;;;;;31.02;15.68;;;-0.60;99.90;;;;;;5094557;28;20027;-71
2022/11/14 06:33:25;;;;;;;34.25;15.20;;;-0.60;99.90;;;;;;5092944;28;20089;-71
2022/11/14 06:35:55;;;;;;;40.20;17.75;;;-0.60;99.90;;;;;;5092489;28;20052;-72
2022/11/14 06:38:21;;;;;;;37.50;16.17;;;-0.70;99.90;;;;;;5094374;28;20052;-72
2022/11/14 06:40:46;;;;;;;36.88;15.55;;;-0.70;99.90;;;;;;5093941;28;20058;-70
2022/11/14 06:43:12;;;;;;;35.45;16.65;;;-0.70;99.90;;;;;;5109802;28;20027;-71
2022/11/14 06:45:38;;;;;;;31.55;16.00;;;-0.70;99.90;;;;;;5114354;28;20034;-70
2022/11/14 06:48:03;;;;;;;32.00;13.98;;;-0.70;99.90;;;;;;5102200;28;20024;-72
2022/11/14 06:50:29;;;;;;;38.30;15.23;;;-0.70;99.90;;;;;;5092159;28;20154;-72
2022/11/14 06:52:57;;;;;;;35.92;14.98;;;-0.70;99.90;;;;;;5093701;28;20110;-70
2022/11/14 06:55:22;;;;;;;38.65;16.17;;;-0.70;99.90;;;;;;5094070;28;20066;-70
2022/11/14 06:57:54;;;;;;;38.78;15.35;;;-0.70;99.90;;;;;;5092246;28;20020;-70
2022/11/14 07:00:21;;;;;;;32.17;15.45;;;-0.70;99.90;;;;;;5092618;28;20445;-71
2022/11/14 07:02:47;;;;;;;41.60;16.83;;;-0.70;99.90;;;;;;5093450;28;20082;-71
2022/11/14 07:05:13;;;;;;;34.15;15.15;;;-0.70;99.90;;;;;;5092730;28;20380;-72
2022/11/14 07:07:38;;;;;;;36.72;17.08;;;-0.60;99.90;;;;;;5079589;28;20020;-72
2022/11/14 07:10:04;;;;;;;40.05;16.40;;;-0.60;99.90;;;;;;5092827;28;20028;-70
2022/11/14 07:12:31;;;;;;;36.70;14.90;;;-0.60;99.90;;;;;;5093435;28;20081;-72
2022/11/14 07:14:57;;;;;;;36.83;16.88;;;-0.60;99.90;;;;;;5090178;28;20017;-71
2022/11/14 07:17:22;;;;;;;31.88;14.38;;;-0.60;99.90;;;;;;5092826;28;20120;-72
2022/11/14 07:19:48;;;;;;;37.00;16.05;;;-0.60;99.90;;;;;;5093033;28;20520;-70
2022/11/14 07:22:14;;;;;;;37.47;16.27;;;-0.60;99.90;;;;;;5093367;28;20075;-71
2022/11/14 07:24:39;;;;;;;40.17;17.38;;;-0.50;99.90;;;;;;5092111;28;20024;-71
2022/11/14 07:27:07;;;;;;;37.97;17.20;;;-0.50;99.90;;;;;;5090519;28;20105;-71
2022/11/14 07:29:33;;;;;;;41.15;16.52;;;-0.60;99.90;;;;;;5093139;28;20020;-66
2022/11/14 07:31:59;;;;;;;41.97;16.63;;;-0.50;99.90;;;;;;5091075;28;20097;-66
2022/11/14 07:34:24;;;;;;;41.38;17.67;;;-0.50;99.90;;;;;;5091898;28;20024;-68
2022/11/14 07:36:50;;;;;;;43.40;18.65;;;-0.50;99.90;;;;;;5073033;28;20029;-69
2022/11/14 07:39:16;;;;;;;34.30;15.15;;;-0.50;99.90;;;;;;5072009;28;20017;-71
2022/11/14 07:41:41;;;;;;;37.40;15.27;;;-0.50;99.90;;;;;;5072878;28;20043;-71
2022/11/14 07:44:07;;;;;;;34.30;15.18;;;-0.50;99.90;;;;;;5079193;28;20071;-71
2022/11/14 07:46:33;;;;;;;35.38;15.55;;;-0.40;99.90;;;;;;5092403;28;20560;-69
2022/11/14 07:48:59;;;;;;;44.30;18.38;;;-0.40;99.90;;;;;;5092810;28;20475;-70
2022/11/14 07:51:24;;;;;;;39.88;16.67;;;-0.40;99.90;;;;;;5092987;28;20108;-71
2022/11/14 07:53:52;;;;;;;45.15;18.33;;;-0.30;99.90;;;;;;5092588;28;20016;-70
2022/11/14 07:56:19;;;;;;;42.95;18.83;;;-0.30;99.90;;;;;;5092629;28;20051;-67
2022/11/14 07:58:45;;;;;;;43.17;17.85;;;-0.20;99.90;;;;;;5091267;28;20050;-70
2022/11/14 08:01:12;;;;;;;48.40;17.80;;;-0.20;99.90;;;;;;5091863;28;20028;-69
2022/11/14 08:03:38;;;;;;;47.88;21.35;;;-0.20;99.90;;;;;;5093697;28;20040;-71
2022/11/14 08:06:07;;;;;;;46.30;17.63;;;-0.10;99.90;;;;;;5092171;28;20043;-70
2022/11/14 08:08:33;;;;;;;40.22;16.80;;;-0.10;99.90;;;;;;5102715;28;20020;-69
2022/11/14 08:10:59;;;;;;;44.75;19.55;;;-0.10;99.90;;;;;;5099998;28;20036;-62
2022/11/14 08:13:26;;;;;;;46.35;18.55;;;0.00;99.90;;;;;;5112225;28;20093;-70
2022/11/14 08:15:52;;;;;;;50.40;18.80;;;0.00;99.90;;;;;;5100068;28;20020;-71
2022/11/14 08:18:18;;;;;;;48.95;18.58;;;0.10;99.90;;;;;;5092434;28;20103;-65
2022/11/14 08:20:43;;;;;;;41.47;18.08;;;0.10;99.90;;;;;;5090856;28;20100;-69
2022/11/14 08:23:10;;;;;;;47.83;18.50;;;0.20;99.90;;;;;;5089517;28;20032;-71
2022/11/14 08:25:35;;;;;;;41.72;18.80;;;0.20;99.90;;;;;;5089191;28;20036;-71
2022/11/14 08:28:01;;;;;;;43.70;17.02;;;0.30;99.90;;;;;;5084918;28;20027;-65
2022/11/14 08:30:27;;;;;;;41.58;17.65;;;0.30;99.90;;;;;;5074349;28;20033;-69
2022/11/14 08:32:52;;;;;;;43.05;18.80;;;0.40;99.90;;;;;;5076054;28;20028;-71
2022/11/14 08:35:18;;;;;;;44.92;17.05;;;0.40;99.90;;;;;;5070611;28;20032;-71
2022/11/14 08:37:44;;;;;;;44.78;17.92;;;0.50;99.90;;;;;;5079800;28;20506;-70
2022/11/14 08:40:10;;;;;;;41.58;18.75;;;0.50;99.90;;;;;;5077484;28;20129;-71
2022/11/14 08:42:36;;;;;;;42.35;20.50;;;0.60;99.90;;;;;;5076655;28;20032;-71
2022/11/14 08:45:02;;;;;;;49.42;19.30;;;0.70;99.90;;;;;;5077259;28;20107;-70
2022/11/14 08:47:27;;;;;;;41.10;19.00;;;0.70;99.90;;;;;;5074998;28;20024;-70
2022/11/14 08:49:53;;;;;;;40.72;16.73;;;0.80;99.90;;;;;;5084889;28;20089;-71
2022/11/14 08:52:20;;;;;;;42.45;17.63;;;0.80;99.90;;;;;;5071697;28;20037;-70
2022/11/14 08:54:45;;;;;;;45.28;17.58;;;0.90;99.90;;;;;;5086007;28;20042;-71
2022/11/14 08:57:14;;;;;;;44.60;17.75;;;1.00;99.90;;;;;;5072808;28;20099;-71
2022/11/14 08:59:40;;;;;;;39.95;17.45;;;1.00;99.90;;;;;;5077486;28;20016;-71
2022/11/14 09:02:08;;;;;;;44.20;19.00;;;1.10;99.90;;;;;;5078513;28;20115;-70
2022/11/14 09:04:33;;;;;;;36.80;15.32;;;1.20;99.90;;;;;;5080176;28;20028;-67
2022/11/14 09:06:59;;;;;;;35.13;15.07;;;1.20;99.90;;;;;;5084434;28;20032;-70
2022/11/14 09:09:24;;;;;;;34.65;14.88;;;1.40;99.90;;;;;;5082355;28;20096;-68
2022/11/14 09:11:50;;;;;;;38.92;15.73;;;1.40;99.90;;;;;;5083400;28;20132;-68
2022/11/14 09:14:15;;;;;;;34.28;14.20;;;1.60;99.90;;;;;;5085917;28;20050;-71
2022/11/14 09:16:41;;;;;;;34.08;14.00;;;1.60;99.90;;;;;;5079207;28;20422;-69
2022/11/14 09:19:06;;;;;;;33.42;13.88;;;1.70;99.90;;;;;;5087243;28;20028;-69
2022/11/14 09:21:32;;;;;;;30.90;13.77;;;1.90;99.90;;;;;;5076921;28;20036;-70
2022/11/14 09:23:58;;;;;;;31.77;13.80;;;1.90;99.90;;;;;;5081081;28;20036;-68
2022/11/14 09:26:23;;;;;;;31.33;12.60;;;2.00;99.90;;;;;;5069982;28;20048;-68
2022/11/14 09:28:49;;;;;;;33.30;16.08;;;2.00;99.90;;;;;;5072865;28;20056;-67
2022/11/14 09:31:14;;;;;;;32.58;14.88;;;2.10;99.90;;;;;;5078083;28;20072;-66
2022/11/14 09:33:43;;;;;;;44.08;16.48;;;2.10;99.90;;;;;;5077281;28;20020;-65
2022/11/14 09:36:14;;;;;;;44.45;17.95;;;2.30;99.90;;;;;;5075974;28;20566;-67
2022/11/14 09:38:41;;;;;;;45.08;18.77;;;2.40;99.90;;;;;;5086232;28;20059;-67
2022/11/14 09:41:42;;;;;;;38.13;17.48;;;2.50;99.90;;;;;;5075487;28;20116;-69
2022/11/14 09:44:16;;;;;;;35.10;15.18;;;2.60;99.90;;;;;;5074158;28;20077;-65
2022/11/14 09:46:44;;;;;;;38.03;16.80;;;2.60;99.90;;;;;;5082377;28;20020;-66
2022/11/14 09:49:44;;;;;;;35.78;16.40;;;2.70;99.90;;;;;;5089734;28;20036;-65
2022/11/14 09:52:47;;;;;;;48.65;19.17;;;2.80;99.90;;;;;;5090544;28;20125;-68
2022/11/14 09:55:26;;;;;;;42.88;18.95;;;3.00;99.90;;;;;;5094062;28;20786;-68
2022/11/14 09:57:52;;;;;;;36.92;17.65;;;3.10;99.90;;;;;;5082456;28;20023;-63
2022/11/14 10:00:20;;;;;;;43.78;17.88;;;3.20;99.90;;;;;;5085609;28;20435;-68
2022/11/14 10:03:21;;;;;;;47.10;22.52;;;3.30;99.90;;;;;;5094087;28;20051;-65
2022/11/14 10:06:06;;;;;;;44.75;19.88;;;3.40;99.90;;;;;;5091095;28;20636;-65
2022/11/14 10:09:20;;;;;;;34.47;17.27;;;3.60;99.90;;;;;;5088535;28;20342;-67
2022/11/14 10:11:58;;;;;;;44.58;18.05;;;3.70;99.90;;;;;;5093774;28;20036;-68
2022/11/14 10:14:38;;;;;;;48.92;18.50;;;3.70;99.90;;;;;;5093338;28;20486;-68
2022/11/14 10:17:20;;;;;;;39.40;17.17;;;3.80;99.90;;;;;;5092060;28;20028;-67
2022/11/14 10:19:54;;;;;;;42.42;17.67;;;3.80;99.90;;;;;;5082472;28;20016;-68
2022/11/14 10:22:53;;;;;;;45.05;20.05;;;4.00;99.90;;;;;;5073234;28;20028;-68
2022/11/14 10:25:22;;;;;;;45.28;18.65;;;4.10;99.90;;;;;;5072589;28;20067;-67
2022/11/14 10:28:02;;;;;;;42.33;19.63;;;4.20;99.90;;;;;;5072465;28;20020;-69
2022/11/14 10:30:40;;;;;;;46.78;20.33;;;4.30;99.90;;;;;;5072109;28;20090;-68
2022/11/14 10:33:24;;;;;;;43.83;20.00;;;4.40;99.90;;;;;;5072489;28;20384;-68
2022/11/14 10:36:04;;;;;;;36.72;17.67;;;4.50;99.90;;;;;;5071438;28;20031;-67
2022/11/14 10:38:40;;;;;;;36.63;16.40;;;4.60;99.90;;;;;;5080242;28;20081;-67
2022/11/14 10:41:08;;;;;;;38.38;16.08;;;4.60;99.90;;;;;;5086887;28;20141;-69
2022/11/14 10:43:41;;;;;;;36.92;16.63;;;4.70;99.90;;;;;;5081963;28;20016;-66
2022/11/14 10:46:25;;;;;;;35.38;16.02;;;4.80;99.90;;;;;;5072565;28;20032;-71
2022/11/14 10:48:51;;;;;;;41.75;18.58;;;4.80;99.90;;;;;;5072702;28;20024;-71
2022/11/14 10:51:23;;;;;;;40.15;19.20;;;4.90;99.90;;;;;;5072890;28;20042;-67
2022/11/14 10:53:51;;;;;;;42.03;19.48;;;5.00;99.90;;;;;;5072832;28;20082;-73
2022/11/14 10:56:16;;;;;;;44.60;19.42;;;5.10;99.90;;;;;;5072243;28;20040;-73
2022/11/14 10:58:44;;;;;;;42.80;20.17;;;5.30;99.90;;;;;;5072569;28;20444;-73
2022/11/14 11:01:37;;;;;;;38.78;20.45;;;5.40;99.90;;;;;;5088961;28;20028;-72
2022/11/14 11:04:29;;;;;;;40.80;21.13;;;5.60;99.90;;;;;;5071624;28;20035;-68
2022/11/14 11:06:56;;;;;;;;;;;5.80;99.90;;;;;;5072762;28;20054;-75
2022/11/14 11:12:22;;;;;;;39.80;19.30;;;6.10;99.90;;;;;;5073276;28;20043;-71
2022/11/14 11:15:06;;;;;;;40.35;19.02;;;6.20;99.90;;;;;;5075753;28;20020;-72
2022/11/14 11:17:32;;;;;;;39.35;18.67;;;6.20;99.90;;;;;;5090031;28;20032;-72
2022/11/14 11:20:23;;;;;;;28.30;15.35;;;6.30;99.90;;;;;;5091766;28;20020;-75
2022/11/14 11:23:00;;;;;;;35.70;18.85;;;6.30;99.90;;;;;;5092057;28;20016;-72
2022/11/14 11:25:28;;;;;;;27.67;16.48;;;6.30;99.90;;;;;;5090952;28;20458;-70
2022/11/14 11:28:23;;;;;;;32.28;16.27;;;6.40;99.90;;;;;;5089657;28;20436;-71
2022/11/14 11:30:56;;;;;;;34.85;17.35;;;6.40;99.90;;;;;;5073323;28;20044;-73
2022/11/14 11:33:23;;;;;;;35.03;17.95;;;6.40;99.90;;;;;;5084665;28;20066;-72
2022/11/14 11:35:51;;;;;;;37.58;17.80;;;6.60;99.90;;;;;;5080397;28;20028;-73
2022/11/14 11:38:17;;;;;;;37.17;19.58;;;6.70;99.90;;;;;;5091387;28;20028;-74
2022/11/14 11:40:46;;;;;;;43.22;19.10;;;6.80;99.90;;;;;;5092671;28;20020;-74
2022/11/14 11:43:38;;;;;;;36.78;18.00;;;7.10;99.90;;;;;;5078520;28;20028;-73
2022/11/14 11:46:20;;;;;;;41.25;19.33;;;7.30;99.90;;;;;;5091189;28;20513;-73
2022/11/14 11:48:46;;;;;;;;;;;7.50;99.90;;;;;;5084230;28;20020;-70
2022/11/14 11:51:18;;;;;;;34.80;17.85;;;7.70;99.90;;;;;;5072294;28;19908;-66
2022/11/14 11:53:54;;;;;;;38.28;18.85;;;7.80;99.90;;;;;;5072235;28;20020;-73
2022/11/14 11:56:25;;;;;;;40.13;18.95;;;7.90;99.90;;;;;;5073081;28;20376;-74
2022/11/14 11:58:55;;;;;;;38.30;20.67;;;8.00;99.90;;;;;;5084868;28;20069;-72
2022/11/14 12:01:21;;;;;;;39.42;19.35;;;8.10;99.90;;;;;;5092393;28;20023;-72
2022/11/14 12:03:49;;;;;;;44.40;21.30;;;8.20;99.90;;;;;;5089550;28;20541;-74
2022/11/14 12:06:24;;;;;;;41.72;21.15;;;8.20;99.90;;;;;;5089970;28;20130;-73
2022/11/14 12:09:14;;;;;;;37.88;19.98;;;8.20;99.90;;;;;;5093065;28;20130;-76
2022/11/14 12:11:46;;;;;;;37.57;18.83;;;8.30;99.90;;;;;;5092475;28;20117;-70
2022/11/14 12:14:33;;;;;;;35.65;19.48;;;8.30;99.90;;;;;;5090532;28;20024;-71
2022/11/14 12:17:07;;;;;;;38.20;19.48;;;8.30;99.90;;;;;;5089924;28;20024;-75
2022/11/14 12:20:14;;;;;;;38.28;21.05;;;8.40;99.90;;;;;;5082306;28;20021;-75
2022/11/14 12:23:14;;;;;;;36.70;18.85;;;8.40;99.90;;;;;;5072994;28;20123;-62
2022/11/14 12:25:58;;;;;;;34.75;18.75;;;8.40;99.90;;;;;;5080798;28;20488;-69
2022/11/14 12:28:35;;;;;;;34.00;18.60;;;8.40;99.90;;;;;;5089706;28;20036;-67
2022/11/14 12:31:04;;;;;;;32.63;19.10;;;8.40;99.90;;;;;;5075014;28;20028;-76
2022/11/14 12:33:38;;;;;;;34.08;18.83;;;8.50;99.90;;;;;;5068938;28;20389;-73
2022/11/14 12:36:12;;;;;;;37.00;18.27;;;8.40;99.90;;;;;;5077029;28;20469;-75
2022/11/14 12:38:48;;;;;;;33.25;18.23;;;8.40;99.90;;;;;;5071497;28;20146;-67
2022/11/14 12:41:31;;;;;;;31.95;17.35;;;8.40;99.90;;;;;;5071683;28;20025;-73
2022/11/14 12:44:15;;;;;;;33.97;17.27;;;8.40;99.90;;;;;;5078059;28;20390;-72
2022/11/14 12:47:05;;;;;;;34.17;16.73;;;8.40;99.90;;;;;;5090553;28;20471;-72
2022/11/14 12:49:55;;;;;;;28.48;15.52;;;8.50;99.90;;;;;;5091772;28;20020;-73